地図

経路データ

SID SEASON NUMBER BASIN SUBBASIN NAME ISO_TIME NATURE LAT LON WMO_WIND WMO_PRES WMO_AGENCY TRACK_TYPE DIST2LAND LANDFALL IFLAG USA_AGENCY USA_ATCF_ID USA_LAT USA_LON USA_RECORD USA_STATUS USA_WIND USA_PRES USA_SSHS USA_R34_NE USA_R34_SE USA_R34_SW USA_R34_NW USA_R50_NE USA_R50_SE USA_R50_SW USA_R50_NW USA_R64_NE USA_R64_SE USA_R64_SW USA_R64_NW USA_POCI USA_ROCI USA_RMW USA_EYE TOKYO_LAT TOKYO_LON TOKYO_GRADE TOKYO_WIND TOKYO_PRES TOKYO_R50_DIR TOKYO_R50_LONG TOKYO_R50_SHORT TOKYO_R30_DIR TOKYO_R30_LONG TOKYO_R30_SHORT TOKYO_LAND CMA_LAT CMA_LON CMA_CAT CMA_WIND CMA_PRES HKO_LAT HKO_LON HKO_CAT HKO_WIND HKO_PRES NEWDELHI_LAT NEWDELHI_LON NEWDELHI_GRADE NEWDELHI_WIND NEWDELHI_PRES NEWDELHI_CI NEWDELHI_DP NEWDELHI_POCI REUNION_LAT REUNION_LON REUNION_TYPE REUNION_WIND REUNION_PRES REUNION_TNUM REUNION_CI REUNION_RMW REUNION_R34_NE REUNION_R34_SE REUNION_R34_SW REUNION_R34_NW REUNION_R50_NE REUNION_R50_SE REUNION_R50_SW REUNION_R50_NW REUNION_R64_NE REUNION_R64_SE REUNION_R64_SW REUNION_R64_NW BOM_LAT BOM_LON BOM_TYPE BOM_WIND BOM_PRES BOM_TNUM BOM_CI BOM_RMW BOM_R34_NE BOM_R34_SE BOM_R34_SW BOM_R34_NW BOM_R50_NE BOM_R50_SE BOM_R50_SW BOM_R50_NW BOM_R64_NE BOM_R64_SE BOM_R64_SW BOM_R64_NW BOM_ROCI BOM_POCI BOM_EYE BOM_POS_METHOD BOM_PRES_METHOD NADI_LAT NADI_LON NADI_CAT NADI_WIND NADI_PRES WELLINGTON_LAT WELLINGTON_LON WELLINGTON_WIND WELLINGTON_PRES DS824_LAT DS824_LON DS824_STAGE DS824_WIND DS824_PRES TD9636_LAT TD9636_LON TD9636_STAGE TD9636_WIND TD9636_PRES TD9635_LAT TD9635_LON TD9635_WIND TD9635_PRES TD9635_ROCI NEUMANN_LAT NEUMANN_LON NEUMANN_CLASS NEUMANN_WIND NEUMANN_PRES MLC_LAT MLC_LON MLC_CLASS MLC_WIND MLC_PRES USA_GUST BOM_GUST BOM_GUST_PER REUNION_GUST REUNION_GUST_PER USA_SEAHGT USA_SEARAD_NE USA_SEARAD_SE USA_SEARAD_SW USA_SEARAD_NW STORM_SPEED STORM_DIR
2020355N10115 2020 52 WP MM KROVANH 2020-12-20 00:00:00 NR 9.90000 115.400 PROVISIONAL 254 254 O_____________ tcvitals WP262020 9.90000 115.400 29 1004 -1 1007 200 65 6 323
2020355N10115 2020 52 WP MM KROVANH 2020-12-20 03:00:00 NR 10.1574 115.203 PROVISIONAL 291 291 P_____________ WP262020 10.1574 115.203 29 1003 -1 1006 190 65 6 309
2020355N10115 2020 52 WP MM KROVANH 2020-12-20 06:00:00 NR 10.3000 114.900 PROVISIONAL 325 325 O_____________ tcvitals WP262020 10.3000 114.900 29 1002 -1 1006 180 65 7 277
2020355N10115 2020 52 WP MM KROVANH 2020-12-20 09:00:00 NR 10.2527 114.455 PROVISIONAL 361 361 P_____________ WP262020 10.2527 114.455 29 1002 -1 1006 175 57 8 256
2020355N10115 2020 52 WP MM KROVANH 2020-12-20 12:00:00 NR 10.1000 114.100 PROVISIONAL 389 384 O_____________ tcvitals WP262020 10.1000 114.100 29 1002 -1 1006 170 50 4 226
2020355N10115 2020 52 WP MM KROVANH 2020-12-20 15:00:00 NR 9.94991 114.135 PROVISIONAL 380 366 P_____________ WP262020 9.94991 114.135 29 1001 -1 1006 170 50 3 163
2020355N10115 2020 52 WP MM KROVANH 2020-12-20 18:00:00 NR 9.80000 114.200 PROVISIONAL 366 366 O_____________ tcvitals WP262020 9.80000 114.200 29 1001 -1 1006 170 50 3 214
2020355N10115 2020 52 WP MM KROVANH 2020-12-20 21:00:00 NR 9.70751 113.968 PROVISIONAL 382 382 P_____________ WP262020 9.70751 113.968 29 1001 -1 1006 170 50 6 251
2020355N10115 2020 52 WP MM KROVANH 2020-12-21 00:00:00 NR 9.60000 113.600 PROVISIONAL 421 421 O_____________ tcvitals WP262020 9.60000 113.600 29 1001 -1 1006 170 50 8 247
2020355N10115 2020 52 WP MM KROVANH 2020-12-21 03:00:00 NR 9.39248 113.222 PROVISIONAL 456 456 P_____________ WP262020 9.39248 113.222 27 1002 -1 1005 165 55 9 243
2020355N10115 2020 52 WP MM KROVANH 2020-12-21 06:00:00 NR 9.20000 112.800 PROVISIONAL 483 437 O_____________ tcvitals WP262020 9.20000 112.800 25 1003 -1 1005 160 60 9 255
2020355N10115 2020 52 WP MM KROVANH 2020-12-21 09:00:00 NR 9.15008 112.320 PROVISIONAL 437 408 P_____________ WP262020 9.15008 112.320 27 1002 -1 1005 160 60 9 264
2020355N10115 2020 52 WP MM KROVANH 2020-12-21 12:00:00 NR 9.10000 111.900 PROVISIONAL 408 399 O_____________ tcvitals WP262020 9.10000 111.900 29 1002 -1 1006 160 60 7 250
2020355N10115 2020 52 WP MM KROVANH 2020-12-21 15:00:00 NR 8.92239 111.670 PROVISIONAL 407 399 P_____________ WP262020 8.92239 111.670 29 1002 -1 1006 160 60 6 225
2020355N10115 2020 52 WP MM KROVANH 2020-12-21 18:00:00 NR 8.70000 111.500 PROVISIONAL 408 402 O_____________ tcvitals WP262020 8.70000 111.500 29 1002 -1 1006 160 60 6 224
2020355N10115 2020 52 WP MM KROVANH 2020-12-21 21:00:00 NR 8.51498 111.265 PROVISIONAL 411 404 P_____________ WP262020 8.51498 111.265 29 1002 -1 1006 160 60 6 231
2020355N10115 2020 52 WP MM KROVANH 2020-12-22 00:00:00 NR 8.30000 111.000 PROVISIONAL 410 410 O_____________ tcvitals WP262020 8.30000 111.000 29 1002 -1 1006 160 60 8 226
2020355N10115 2020 52 WP MM KROVANH 2020-12-22 03:00:00 NR 7.97750 110.707 PROVISIONAL 418 418 P_____________ WP262020 7.97750 110.707 27 1003 -1 1006 155 45 8 225
2020355N10115 2020 52 WP MM KROVANH 2020-12-22 06:00:00 NR 7.70000 110.400 PROVISIONAL 426 423 O_____________ tcvitals WP262020 7.70000 110.400 25 1004 -1 1006 150 30 7 233
2020355N10115 2020 52 WP MM KROVANH 2020-12-22 09:00:00 NR 7.54493 110.122 PROVISIONAL 426 399 P_____________ WP262020 7.54493 110.122 25 1004 -1 1006 152 32 6 260
2020355N10115 2020 52 WP MM KROVANH 2020-12-22 12:00:00 NR 7.60000 109.800 PROVISIONAL 399 339 O_____________ tcvitals WP262020 7.60000 109.800 25 1004 -1 1006 155 35 9 301
2020355N10115 2020 52 WP MM KROVANH 2020-12-22 15:00:00 NR 8.00004 109.365 PROVISIONAL 339 275 P_____________ WP262020 8.00004 109.365 25 1004 -1 1006 140 35 12 312
2020355N10115 2020 52 WP MM KROVANH 2020-12-22 18:00:00 NR 8.40000 108.900 PROVISIONAL 275 254 O_____________ tcvitals WP262020 8.40000 108.900 25 1005 -1 1007 126 35 10 295
2020355N10115 2020 52 WP MM KROVANH 2020-12-22 21:00:00 NR 8.41164 108.485 PROVISIONAL 254 227 P_____________ WP262020 8.41164 108.485 25 1004 -1 1007 110 35 8 263
2020355N10115 2020 52 WP MM KROVANH 2020-12-23 00:00:00 NR 8.30000 108.100 PROVISIONAL 227 204 O_____________ tcvitals WP262020 8.30000 108.100 25 1004 -1 1007 95 35 7 260
2020355N10115 2020 52 WP MM KROVANH 2020-12-23 03:00:00 NR 8.28134 107.745 PROVISIONAL 196 173 P_____________ WP262020 8.28134 107.745 -1 7 268
2020355N10115 2020 52 WP MM KROVANH 2020-12-23 06:00:00 NR 8.27744 107.395 PROVISIONAL 173 154 O_____________ tcvitals WP262020 8.27744 107.395 -1 7 270
2020355N10115 2020 52 WP MM KROVANH 2020-12-23 09:00:00 NR 8.28010 107.039 PROVISIONAL 149 138 P_____________ WP262020 8.28010 107.039 -1 8 270
2020355N10115 2020 52 WP MM KROVANH 2020-12-23 12:00:00 NR 8.27506 106.633 PROVISIONAL 134 113 O_____________ tcvitals WP262020 8.27506 106.633 -1 9 268
2020355N10115 2020 52 WP MM KROVANH 2020-12-23 15:00:00 NR 8.24549 106.142 PROVISIONAL 110 74 P_____________ WP262020 8.24549 106.142 -1 10 266
2020355N10115 2020 52 WP MM KROVANH 2020-12-23 18:00:00 NR 8.20000 105.600 PROVISIONAL 74 O_____________ tcvitals WP262020 8.20000 105.600 19 1006 -1 1008 70 35 11 265

デジタル台風データ・検索

IBTrACS Databaseについて

本データベースは、米国NOAAが公開する1842年以降の世界の熱帯低気圧のベストトラックデータアーカイブInternational Best Track Archive for Climate Stewardship (IBTrACS)を、ウェブで閲覧しやすい形式に変換したものです。

最終更新日:2021-10-19